sensor_id;sensor_type;location;lat;lon;timestamp;P1;durP1;ratioP1;P2;durP2;ratioP2
7661;SDS011;30314;48.184;11.510;2023-02-01T00:00:27;3.97;;;2.13;;
7661;SDS011;30314;48.184;11.510;2023-02-01T00:02:54;5.33;;;2.90;;
7661;SDS011;30314;48.184;11.510;2023-02-01T00:05:20;4.13;;;2.40;;
7661;SDS011;30314;48.184;11.510;2023-02-01T00:07:47;4.37;;;2.60;;
7661;SDS011;30314;48.184;11.510;2023-02-01T00:10:15;4.17;;;2.70;;
7661;SDS011;30314;48.184;11.510;2023-02-01T00:12:42;5.50;;;2.20;;
7661;SDS011;30314;48.184;11.510;2023-02-01T00:15:09;3.93;;;2.43;;
7661;SDS011;30314;48.184;11.510;2023-02-01T00:17:36;4.60;;;2.40;;
7661;SDS011;30314;48.184;11.510;2023-02-01T00:20:03;4.20;;;2.63;;
7661;SDS011;30314;48.184;11.510;2023-02-01T00:22:30;6.13;;;2.93;;
7661;SDS011;30314;48.184;11.510;2023-02-01T00:24:56;5.10;;;2.53;;
7661;SDS011;30314;48.184;11.510;2023-02-01T00:27:23;5.60;;;2.47;;
7661;SDS011;30314;48.184;11.510;2023-02-01T00:29:49;3.60;;;2.43;;
7661;SDS011;30314;48.184;11.510;2023-02-01T00:32:16;6.00;;;2.17;;
7661;SDS011;30314;48.184;11.510;2023-02-01T00:34:42;3.57;;;2.37;;
7661;SDS011;30314;48.184;11.510;2023-02-01T00:37:09;4.27;;;2.43;;
7661;SDS011;30314;48.184;11.510;2023-02-01T00:39:35;3.70;;;2.50;;
7661;SDS011;30314;48.184;11.510;2023-02-01T00:42:02;6.17;;;2.77;;
7661;SDS011;30314;48.184;11.510;2023-02-01T00:44:28;3.60;;;2.43;;
7661;SDS011;30314;48.184;11.510;2023-02-01T00:46:59;5.07;;;2.90;;
7661;SDS011;30314;48.184;11.510;2023-02-01T00:49:26;5.03;;;2.63;;
7661;SDS011;30314;48.184;11.510;2023-02-01T00:51:54;10.97;;;3.40;;
7661;SDS011;30314;48.184;11.510;2023-02-01T00:54:20;5.77;;;3.83;;
7661;SDS011;30314;48.184;11.510;2023-02-01T00:56:47;3.50;;;2.33;;
7661;SDS011;30314;48.184;11.510;2023-02-01T00:59:13;4.40;;;3.43;;
7661;SDS011;30314;48.184;11.510;2023-02-01T01:01:40;4.53;;;3.00;;
7661;SDS011;30314;48.184;11.510;2023-02-01T01:04:06;6.60;;;2.67;;
7661;SDS011;30314;48.184;11.510;2023-02-01T01:06:33;8.80;;;3.60;;
7661;SDS011;30314;48.184;11.510;2023-02-01T01:09:03;5.73;;;3.50;;
7661;SDS011;30314;48.184;11.510;2023-02-01T01:11:32;5.60;;;2.97;;
7661;SDS011;30314;48.184;11.510;2023-02-01T01:14:01;6.23;;;3.40;;
7661;SDS011;30314;48.184;11.510;2023-02-01T01:16:29;5.30;;;3.50;;
7661;SDS011;30314;48.184;11.510;2023-02-01T01:18:57;7.13;;;3.83;;
7661;SDS011;30314;48.184;11.510;2023-02-01T01:21:24;7.40;;;3.53;;
7661;SDS011;30314;48.184;11.510;2023-02-01T01:23:50;6.73;;;3.23;;
7661;SDS011;30314;48.184;11.510;2023-02-01T01:26:18;7.97;;;3.70;;
7661;SDS011;30314;48.184;11.510;2023-02-01T01:28:47;5.93;;;3.93;;
7661;SDS011;30314;48.184;11.510;2023-02-01T01:31:15;7.20;;;3.50;;
7661;SDS011;30314;48.184;11.510;2023-02-01T01:33:43;5.70;;;3.10;;
7661;SDS011;30314;48.184;11.510;2023-02-01T01:36:11;5.13;;;3.23;;
7661;SDS011;30314;48.184;11.510;2023-02-01T01:38:39;9.00;;;4.07;;
7661;SDS011;30314;48.184;11.510;2023-02-01T01:41:06;6.60;;;3.30;;
7661;SDS011;30314;48.184;11.510;2023-02-01T01:43:51;6.47;;;4.13;;
7661;SDS011;30314;48.184;11.510;2023-02-01T01:46:25;6.80;;;3.60;;
7661;SDS011;30314;48.184;11.510;2023-02-01T01:49:02;9.60;;;4.43;;
7661;SDS011;30314;48.184;11.510;2023-02-01T01:51:40;8.20;;;4.70;;
7661;SDS011;30314;48.184;11.510;2023-02-01T01:54:11;9.50;;;4.27;;
7661;SDS011;30314;48.184;11.510;2023-02-01T01:56:43;10.87;;;4.77;;
7661;SDS011;30314;48.184;11.510;2023-02-01T01:59:16;8.13;;;4.70;;
7661;SDS011;30314;48.184;11.510;2023-02-01T02:01:43;7.10;;;4.33;;
7661;SDS011;30314;48.184;11.510;2023-02-01T02:04:10;9.00;;;4.07;;
7661;SDS011;30314;48.184;11.510;2023-02-01T02:06:41;8.03;;;4.43;;
7661;SDS011;30314;48.184;11.510;2023-02-01T02:09:14;7.10;;;4.70;;
7661;SDS011;30314;48.184;11.510;2023-02-01T02:11:42;8.77;;;4.90;;
7661;SDS011;30314;48.184;11.510;2023-02-01T02:14:09;6.50;;;4.50;;
7661;SDS011;30314;48.184;11.510;2023-02-01T02:16:54;9.63;;;5.50;;
7661;SDS011;30314;48.184;11.510;2023-02-01T02:30:53;6.77;;;3.83;;
7661;SDS011;30314;48.184;11.510;2023-02-01T02:33:41;6.40;;;4.60;;
7661;SDS011;30314;48.184;11.510;2023-02-01T02:36:37;9.20;;;4.50;;
7661;SDS011;30314;48.184;11.510;2023-02-01T02:39:18;11.03;;;4.50;;
7661;SDS011;30314;48.184;11.510;2023-02-01T02:50:51;8.50;;;3.47;;
7661;SDS011;30314;48.184;11.510;2023-02-01T02:54:17;9.70;;;4.30;;
7661;SDS011;30314;48.184;11.510;2023-02-01T02:57:06;7.90;;;4.30;;
7661;SDS011;30314;48.184;11.510;2023-02-01T02:59:57;9.40;;;4.43;;
7661;SDS011;30314;48.184;11.510;2023-02-01T03:02:46;7.90;;;4.90;;
7661;SDS011;30314;48.184;11.510;2023-02-01T03:05:35;7.73;;;3.83;;
7661;SDS011;30314;48.184;11.510;2023-02-01T03:08:04;11.17;;;4.40;;
7661;SDS011;30314;48.184;11.510;2023-02-01T03:18:57;7.17;;;3.97;;
7661;SDS011;30314;48.184;11.510;2023-02-01T03:21:32;8.27;;;3.60;;
7661;SDS011;30314;48.184;11.510;2023-02-01T03:24:09;7.90;;;4.00;;
7661;SDS011;30314;48.184;11.510;2023-02-01T03:26:38;5.13;;;3.63;;
7661;SDS011;30314;48.184;11.510;2023-02-01T03:29:14;9.90;;;4.07;;
7661;SDS011;30314;48.184;11.510;2023-02-01T03:31:45;5.97;;;3.53;;
7661;SDS011;30314;48.184;11.510;2023-02-01T03:34:12;5.20;;;3.70;;
7661;SDS011;30314;48.184;11.510;2023-02-01T03:36:43;7.63;;;4.10;;
7661;SDS011;30314;48.184;11.510;2023-02-01T03:42:16;5.70;;;3.40;;
7661;SDS011;30314;48.184;11.510;2023-02-01T03:44:55;6.20;;;3.10;;
7661;SDS011;30314;48.184;11.510;2023-02-01T03:47:29;4.43;;;3.37;;
7661;SDS011;30314;48.184;11.510;2023-02-01T03:50:04;4.97;;;3.10;;
7661;SDS011;30314;48.184;11.510;2023-02-01T03:55:08;6.60;;;3.50;;
7661;SDS011;30314;48.184;11.510;2023-02-01T03:57:41;4.93;;;3.67;;
7661;SDS011;30314;48.184;11.510;2023-02-01T04:00:16;6.90;;;3.43;;
7661;SDS011;30314;48.184;11.510;2023-02-01T04:02:49;6.80;;;3.90;;
7661;SDS011;30314;48.184;11.510;2023-02-01T04:05:16;5.07;;;3.00;;
7661;SDS011;30314;48.184;11.510;2023-02-01T04:07:52;5.97;;;3.30;;
7661;SDS011;30314;48.184;11.510;2023-02-01T04:10:20;7.20;;;3.93;;
7661;SDS011;30314;48.184;11.510;2023-02-01T04:12:47;11.37;;;3.20;;
7661;SDS011;30314;48.184;11.510;2023-02-01T04:15:13;5.43;;;3.10;;
7661;SDS011;30314;48.184;11.510;2023-02-01T04:17:40;5.80;;;3.23;;
7661;SDS011;30314;48.184;11.510;2023-02-01T04:20:07;6.03;;;3.67;;
7661;SDS011;30314;48.184;11.510;2023-02-01T04:22:36;7.77;;;3.40;;
7661;SDS011;30314;48.184;11.510;2023-02-01T04:25:07;6.70;;;3.70;;
7661;SDS011;30314;48.184;11.510;2023-02-01T04:27:34;6.53;;;3.60;;
7661;SDS011;30314;48.184;11.510;2023-02-01T04:30:02;6.60;;;4.10;;
7661;SDS011;30314;48.184;11.510;2023-02-01T04:32:30;5.13;;;3.20;;
7661;SDS011;30314;48.184;11.510;2023-02-01T04:34:57;9.50;;;4.20;;
7661;SDS011;30314;48.184;11.510;2023-02-01T04:37:23;6.40;;;3.70;;
7661;SDS011;30314;48.184;11.510;2023-02-01T04:40:09;7.50;;;4.17;;
7661;SDS011;30314;48.184;11.510;2023-02-01T04:42:39;6.17;;;3.40;;
7661;SDS011;30314;48.184;11.510;2023-02-01T04:45:06;9.00;;;3.93;;
7661;SDS011;30314;48.184;11.510;2023-02-01T04:47:33;7.03;;;3.30;;
7661;SDS011;30314;48.184;11.510;2023-02-01T04:50:00;7.20;;;3.67;;
7661;SDS011;30314;48.184;11.510;2023-02-01T04:52:29;5.60;;;3.43;;
7661;SDS011;30314;48.184;11.510;2023-02-01T04:54:55;7.07;;;3.60;;
7661;SDS011;30314;48.184;11.510;2023-02-01T04:57:24;6.17;;;3.33;;
7661;SDS011;30314;48.184;11.510;2023-02-01T04:59:51;7.70;;;3.90;;
7661;SDS011;30314;48.184;11.510;2023-02-01T05:02:18;6.30;;;2.90;;
7661;SDS011;30314;48.184;11.510;2023-02-01T05:04:44;5.00;;;3.73;;
7661;SDS011;30314;48.184;11.510;2023-02-01T05:07:11;5.60;;;3.80;;
7661;SDS011;30314;48.184;11.510;2023-02-01T05:09:37;4.87;;;3.73;;
7661;SDS011;30314;48.184;11.510;2023-02-01T05:12:04;6.43;;;3.60;;
7661;SDS011;30314;48.184;11.510;2023-02-01T05:14:49;6.73;;;4.30;;
7661;SDS011;30314;48.184;11.510;2023-02-01T05:17:16;6.50;;;4.47;;
7661;SDS011;30314;48.184;11.510;2023-02-01T05:19:42;7.67;;;3.70;;
7661;SDS011;30314;48.184;11.510;2023-02-01T05:22:09;6.13;;;3.80;;
7661;SDS011;30314;48.184;11.510;2023-02-01T05:24:35;7.50;;;3.80;;
7661;SDS011;30314;48.184;11.510;2023-02-01T05:27:02;6.77;;;4.30;;
7661;SDS011;30314;48.184;11.510;2023-02-01T05:29:28;6.97;;;3.83;;
7661;SDS011;30314;48.184;11.510;2023-02-01T05:31:55;8.40;;;4.50;;
7661;SDS011;30314;48.184;11.510;2023-02-01T05:34:26;7.37;;;4.30;;
7661;SDS011;30314;48.184;11.510;2023-02-01T05:36:52;8.53;;;3.73;;
7661;SDS011;30314;48.184;11.510;2023-02-01T05:39:18;6.80;;;4.03;;
7661;SDS011;30314;48.184;11.510;2023-02-01T05:41:45;8.20;;;4.13;;
7661;SDS011;30314;48.184;11.510;2023-02-01T05:44:11;13.53;;;4.27;;
7661;SDS011;30314;48.184;11.510;2023-02-01T05:46:38;8.20;;;4.37;;
7661;SDS011;30314;48.184;11.510;2023-02-01T05:49:05;5.77;;;3.90;;
7661;SDS011;30314;48.184;11.510;2023-02-01T05:51:31;7.50;;;3.77;;
7661;SDS011;30314;48.184;11.510;2023-02-01T05:53:57;5.70;;;4.13;;
7661;SDS011;30314;48.184;11.510;2023-02-01T05:56:24;12.97;;;3.87;;
7661;SDS011;30314;48.184;11.510;2023-02-01T05:58:50;7.50;;;3.87;;
7661;SDS011;30314;48.184;11.510;2023-02-01T06:01:17;6.53;;;3.60;;
7661;SDS011;30314;48.184;11.510;2023-02-01T06:03:43;7.00;;;3.70;;
7661;SDS011;30314;48.184;11.510;2023-02-01T06:06:10;8.43;;;4.70;;
7661;SDS011;30314;48.184;11.510;2023-02-01T06:08:36;7.90;;;4.83;;
7661;SDS011;30314;48.184;11.510;2023-02-01T06:11:06;4.40;;;3.33;;
7661;SDS011;30314;48.184;11.510;2023-02-01T06:13:33;6.60;;;3.80;;
7661;SDS011;30314;48.184;11.510;2023-02-01T06:16:00;9.53;;;5.13;;
7661;SDS011;30314;48.184;11.510;2023-02-01T06:18:28;6.47;;;4.10;;
7661;SDS011;30314;48.184;11.510;2023-02-01T06:20:57;9.50;;;3.70;;
7661;SDS011;30314;48.184;11.510;2023-02-01T06:23:28;8.27;;;4.50;;
7661;SDS011;30314;48.184;11.510;2023-02-01T06:26:00;6.00;;;3.97;;
7661;SDS011;30314;48.184;11.510;2023-02-01T06:28:28;10.63;;;4.40;;
7661;SDS011;30314;48.184;11.510;2023-02-01T06:30:56;6.37;;;3.90;;
7661;SDS011;30314;48.184;11.510;2023-02-01T06:33:24;5.60;;;3.50;;
7661;SDS011;30314;48.184;11.510;2023-02-01T06:35:58;11.20;;;4.70;;
7661;SDS011;30314;48.184;11.510;2023-02-01T06:38:25;7.83;;;4.77;;
7661;SDS011;30314;48.184;11.510;2023-02-01T06:40:53;6.50;;;4.30;;
7661;SDS011;30314;48.184;11.510;2023-02-01T06:43:21;10.33;;;4.87;;
7661;SDS011;30314;48.184;11.510;2023-02-01T06:45:48;5.30;;;3.53;;
7661;SDS011;30314;48.184;11.510;2023-02-01T06:48:15;5.20;;;3.80;;
7661;SDS011;30314;48.184;11.510;2023-02-01T06:50:42;7.37;;;3.63;;
7661;SDS011;30314;48.184;11.510;2023-02-01T06:53:08;10.03;;;5.17;;
7661;SDS011;30314;48.184;11.510;2023-02-01T06:55:35;7.40;;;3.10;;
7661;SDS011;30314;48.184;11.510;2023-02-01T06:58:02;10.27;;;4.60;;
7661;SDS011;30314;48.184;11.510;2023-02-01T07:00:29;9.13;;;4.87;;
7661;SDS011;30314;48.184;11.510;2023-02-01T07:02:56;4.80;;;3.40;;
7661;SDS011;30314;48.184;11.510;2023-02-01T07:05:24;6.23;;;3.63;;
7661;SDS011;30314;48.184;11.510;2023-02-01T07:07:50;6.80;;;3.77;;
7661;SDS011;30314;48.184;11.510;2023-02-01T07:10:17;8.50;;;3.80;;
7661;SDS011;30314;48.184;11.510;2023-02-01T07:12:43;6.93;;;3.70;;
7661;SDS011;30314;48.184;11.510;2023-02-01T07:15:10;12.30;;;3.77;;
7661;SDS011;30314;48.184;11.510;2023-02-01T07:17:36;5.00;;;3.00;;
7661;SDS011;30314;48.184;11.510;2023-02-01T07:20:03;5.43;;;3.00;;
7661;SDS011;30314;48.184;11.510;2023-02-01T07:22:30;7.97;;;3.70;;
7661;SDS011;30314;48.184;11.510;2023-02-01T07:24:57;5.93;;;3.60;;
7661;SDS011;30314;48.184;11.510;2023-02-01T07:27:23;11.33;;;3.40;;
7661;SDS011;30314;48.184;11.510;2023-02-01T07:29:51;6.70;;;3.00;;
7661;SDS011;30314;48.184;11.510;2023-02-01T07:32:18;5.90;;;2.80;;
7661;SDS011;30314;48.184;11.510;2023-02-01T07:34:45;3.83;;;2.80;;
7661;SDS011;30314;48.184;11.510;2023-02-01T07:37:11;4.80;;;3.30;;
7661;SDS011;30314;48.184;11.510;2023-02-01T07:39:38;7.43;;;2.80;;
7661;SDS011;30314;48.184;11.510;2023-02-01T07:42:05;4.97;;;3.67;;
7661;SDS011;30314;48.184;11.510;2023-02-01T07:44:31;4.90;;;2.60;;
7661;SDS011;30314;48.184;11.510;2023-02-01T07:46:58;7.63;;;3.43;;
7661;SDS011;30314;48.184;11.510;2023-02-01T07:49:25;4.10;;;2.80;;
7661;SDS011;30314;48.184;11.510;2023-02-01T07:51:51;5.53;;;3.00;;
7661;SDS011;30314;48.184;11.510;2023-02-01T07:54:18;5.53;;;2.73;;
7661;SDS011;30314;48.184;11.510;2023-02-01T07:56:44;6.10;;;3.17;;
7661;SDS011;30314;48.184;11.510;2023-02-01T07:59:11;5.50;;;3.30;;
7661;SDS011;30314;48.184;11.510;2023-02-01T08:01:38;4.97;;;2.30;;
7661;SDS011;30314;48.184;11.510;2023-02-01T08:04:04;5.40;;;2.40;;
7661;SDS011;30314;48.184;11.510;2023-02-01T08:06:32;3.53;;;2.30;;
7661;SDS011;30314;48.184;11.510;2023-02-01T08:09:04;7.20;;;1.90;;
7661;SDS011;30314;48.184;11.510;2023-02-01T08:11:31;3.30;;;2.03;;
7661;SDS011;30314;48.184;11.510;2023-02-01T08:13:57;3.40;;;2.13;;
7661;SDS011;30314;48.184;11.510;2023-02-01T08:16:24;3.43;;;2.33;;
7661;SDS011;30314;48.184;11.510;2023-02-01T08:18:51;5.37;;;2.60;;
7661;SDS011;30314;48.184;11.510;2023-02-01T08:21:25;4.40;;;2.33;;
7661;SDS011;30314;48.184;11.510;2023-02-01T08:23:54;3.80;;;2.00;;
7661;SDS011;30314;48.184;11.510;2023-02-01T08:26:23;3.10;;;2.30;;
7661;SDS011;30314;48.184;11.510;2023-02-01T08:28:55;5.23;;;2.40;;
7661;SDS011;30314;48.184;11.510;2023-02-01T08:31:24;3.60;;;2.20;;
7661;SDS011;30314;48.184;11.510;2023-02-01T08:33:53;4.13;;;2.20;;
7661;SDS011;30314;48.184;11.510;2023-02-01T08:36:22;6.83;;;2.40;;
7661;SDS011;30314;48.184;11.510;2023-02-01T08:38:49;6.20;;;2.50;;
7661;SDS011;30314;48.184;11.510;2023-02-01T08:41:17;2.70;;;2.13;;
7661;SDS011;30314;48.184;11.510;2023-02-01T08:43:46;4.10;;;2.20;;
7661;SDS011;30314;48.184;11.510;2023-02-01T08:46:14;5.00;;;2.20;;
7661;SDS011;30314;48.184;11.510;2023-02-01T08:48:40;3.67;;;1.90;;
7661;SDS011;30314;48.184;11.510;2023-02-01T08:51:08;3.53;;;2.07;;
7661;SDS011;30314;48.184;11.510;2023-02-01T08:53:38;3.53;;;2.07;;
7661;SDS011;30314;48.184;11.510;2023-02-01T08:56:08;3.43;;;1.83;;
7661;SDS011;30314;48.184;11.510;2023-02-01T08:58:36;4.10;;;1.87;;
7661;SDS011;30314;48.184;11.510;2023-02-01T09:01:13;5.47;;;3.20;;
7661;SDS011;30314;48.184;11.510;2023-02-01T09:03:41;10.63;;;2.87;;
7661;SDS011;30314;48.184;11.510;2023-02-01T09:06:09;6.03;;;2.57;;
7661;SDS011;30314;48.184;11.510;2023-02-01T09:08:39;4.03;;;2.43;;
7661;SDS011;30314;48.184;11.510;2023-02-01T09:11:07;3.23;;;1.97;;
7661;SDS011;30314;48.184;11.510;2023-02-01T09:13:37;3.90;;;2.17;;
7661;SDS011;30314;48.184;11.510;2023-02-01T09:16:04;2.80;;;1.83;;
7661;SDS011;30314;48.184;11.510;2023-02-01T09:18:31;3.67;;;2.07;;
7661;SDS011;30314;48.184;11.510;2023-02-01T09:20:57;2.30;;;1.67;;
7661;SDS011;30314;48.184;11.510;2023-02-01T09:23:24;3.70;;;2.30;;
7661;SDS011;30314;48.184;11.510;2023-02-01T09:25:50;4.13;;;2.10;;
7661;SDS011;30314;48.184;11.510;2023-02-01T09:28:18;2.47;;;1.70;;
7661;SDS011;30314;48.184;11.510;2023-02-01T09:30:44;3.93;;;2.13;;
7661;SDS011;30314;48.184;11.510;2023-02-01T09:33:11;4.20;;;2.10;;
7661;SDS011;30314;48.184;11.510;2023-02-01T09:35:38;4.23;;;2.50;;
7661;SDS011;30314;48.184;11.510;2023-02-01T09:38:04;6.17;;;2.00;;
7661;SDS011;30314;48.184;11.510;2023-02-01T09:40:33;4.37;;;3.00;;
7661;SDS011;30314;48.184;11.510;2023-02-01T09:43:04;3.10;;;1.87;;
7661;SDS011;30314;48.184;11.510;2023-02-01T09:48:37;4.83;;;3.20;;
7661;SDS011;30314;48.184;11.510;2023-02-01T09:51:10;2.90;;;2.33;;
7661;SDS011;30314;48.184;11.510;2023-02-01T09:53:43;2.47;;;1.70;;
7661;SDS011;30314;48.184;11.510;2023-02-01T09:56:15;4.00;;;2.07;;
7661;SDS011;30314;48.184;11.510;2023-02-01T09:59:00;3.00;;;2.07;;
7661;SDS011;30314;48.184;11.510;2023-02-01T10:01:37;3.13;;;2.13;;
7661;SDS011;30314;48.184;11.510;2023-02-01T10:04:08;3.63;;;2.30;;
7661;SDS011;30314;48.184;11.510;2023-02-01T10:20:20;2.47;;;1.80;;
7661;SDS011;30314;48.184;11.510;2023-02-01T10:23:04;5.10;;;2.53;;
7661;SDS011;30314;48.184;11.510;2023-02-01T10:28:53;4.30;;;2.40;;
7661;SDS011;30314;48.184;11.510;2023-02-01T10:31:28;5.30;;;2.20;;
7661;SDS011;30314;48.184;11.510;2023-02-01T10:34:04;4.03;;;1.90;;
7661;SDS011;30314;48.184;11.510;2023-02-01T10:36:41;7.90;;;2.10;;
7661;SDS011;30314;48.184;11.510;2023-02-01T10:39:11;5.70;;;1.67;;
7661;SDS011;30314;48.184;11.510;2023-02-01T10:41:40;2.87;;;1.93;;
7661;SDS011;30314;48.184;11.510;2023-02-01T10:44:14;2.60;;;1.60;;
7661;SDS011;30314;48.184;11.510;2023-02-01T10:46:43;3.53;;;1.90;;
7661;SDS011;30314;48.184;11.510;2023-02-01T10:49:20;6.23;;;1.50;;
7661;SDS011;30314;48.184;11.510;2023-02-01T10:51:54;4.43;;;2.77;;
7661;SDS011;30314;48.184;11.510;2023-02-01T10:54:35;2.50;;;1.40;;
7661;SDS011;30314;48.184;11.510;2023-02-01T10:57:10;3.63;;;1.63;;
7661;SDS011;30314;48.184;11.510;2023-02-01T10:59:46;4.20;;;2.10;;
7661;SDS011;30314;48.184;11.510;2023-02-01T11:02:16;3.17;;;1.60;;
7661;SDS011;30314;48.184;11.510;2023-02-01T11:04:57;2.67;;;1.97;;
7661;SDS011;30314;48.184;11.510;2023-02-01T11:07:26;4.20;;;1.90;;
7661;SDS011;30314;48.184;11.510;2023-02-01T11:09:53;5.77;;;3.13;;
7661;SDS011;30314;48.184;11.510;2023-02-01T11:14:55;4.70;;;1.93;;
7661;SDS011;30314;48.184;11.510;2023-02-01T11:17:26;4.50;;;2.40;;
7661;SDS011;30314;48.184;11.510;2023-02-01T11:20:08;4.80;;;2.30;;
7661;SDS011;30314;48.184;11.510;2023-02-01T11:22:45;4.10;;;2.13;;
7661;SDS011;30314;48.184;11.510;2023-02-01T11:25:19;6.07;;;2.60;;
7661;SDS011;30314;48.184;11.510;2023-02-01T11:27:46;3.80;;;2.53;;
7661;SDS011;30314;48.184;11.510;2023-02-01T11:32:57;6.73;;;2.20;;
7661;SDS011;30314;48.184;11.510;2023-02-01T11:35:25;4.90;;;2.20;;
7661;SDS011;30314;48.184;11.510;2023-02-01T11:37:55;7.10;;;2.23;;
7661;SDS011;30314;48.184;11.510;2023-02-01T11:40:27;3.73;;;2.07;;
7661;SDS011;30314;48.184;11.510;2023-02-01T11:43:01;4.27;;;2.10;;
7661;SDS011;30314;48.184;11.510;2023-02-01T11:45:33;3.80;;;2.10;;
7661;SDS011;30314;48.184;11.510;2023-02-01T11:48:09;5.20;;;2.87;;
7661;SDS011;30314;48.184;11.510;2023-02-01T11:50:56;6.63;;;2.50;;
7661;SDS011;30314;48.184;11.510;2023-02-01T11:53:27;14.83;;;2.33;;
7661;SDS011;30314;48.184;11.510;2023-02-01T11:56:05;4.47;;;2.70;;
7661;SDS011;30314;48.184;11.510;2023-02-01T11:58:41;7.43;;;3.40;;
7661;SDS011;30314;48.184;11.510;2023-02-01T12:06:47;5.70;;;3.03;;
7661;SDS011;30314;48.184;11.510;2023-02-01T12:12:19;9.13;;;2.67;;
7661;SDS011;30314;48.184;11.510;2023-02-01T12:14:59;6.03;;;2.90;;
7661;SDS011;30314;48.184;11.510;2023-02-01T12:17:48;5.90;;;2.37;;
7661;SDS011;30314;48.184;11.510;2023-02-01T12:20:23;10.90;;;3.33;;
7661;SDS011;30314;48.184;11.510;2023-02-01T12:23:14;4.63;;;3.10;;
7661;SDS011;30314;48.184;11.510;2023-02-01T12:25:54;5.63;;;2.57;;
7661;SDS011;30314;48.184;11.510;2023-02-01T12:28:33;10.77;;;2.90;;
7661;SDS011;30314;48.184;11.510;2023-02-01T12:31:24;6.47;;;3.47;;
7661;SDS011;30314;48.184;11.510;2023-02-01T12:34:19;7.07;;;2.90;;
7661;SDS011;30314;48.184;11.510;2023-02-01T12:39:42;5.80;;;2.60;;
7661;SDS011;30314;48.184;11.510;2023-02-01T12:42:27;6.87;;;2.60;;
7661;SDS011;30314;48.184;11.510;2023-02-01T12:45:20;9.13;;;2.83;;
7661;SDS011;30314;48.184;11.510;2023-02-01T12:48:01;5.10;;;2.80;;
7661;SDS011;30314;48.184;11.510;2023-02-01T12:50:48;6.27;;;2.87;;
7661;SDS011;30314;48.184;11.510;2023-02-01T12:56:31;5.87;;;2.70;;
7661;SDS011;30314;48.184;11.510;2023-02-01T12:59:08;5.53;;;1.80;;
7661;SDS011;30314;48.184;11.510;2023-02-01T13:01:54;5.73;;;2.70;;
7661;SDS011;30314;48.184;11.510;2023-02-01T13:04:28;4.03;;;2.20;;
7661;SDS011;30314;48.184;11.510;2023-02-01T13:12:15;5.57;;;3.03;;
7661;SDS011;30314;48.184;11.510;2023-02-01T13:14:48;3.50;;;2.00;;
7661;SDS011;30314;48.184;11.510;2023-02-01T13:17:22;9.93;;;2.30;;
7661;SDS011;30314;48.184;11.510;2023-02-01T13:20:06;4.50;;;2.20;;
7661;SDS011;30314;48.184;11.510;2023-02-01T13:22:46;8.40;;;2.00;;
7661;SDS011;30314;48.184;11.510;2023-02-01T13:28:00;3.30;;;2.20;;
7661;SDS011;30314;48.184;11.510;2023-02-01T13:30:34;7.97;;;3.47;;
7661;SDS011;30314;48.184;11.510;2023-02-01T13:33:35;4.13;;;2.60;;
7661;SDS011;30314;48.184;11.510;2023-02-01T13:36:39;5.10;;;3.17;;
7661;SDS011;30314;48.184;11.510;2023-02-01T13:42:11;5.10;;;2.07;;
7661;SDS011;30314;48.184;11.510;2023-02-01T13:44:49;4.87;;;2.90;;
7661;SDS011;30314;48.184;11.510;2023-02-01T13:47:23;9.90;;;2.53;;
7661;SDS011;30314;48.184;11.510;2023-02-01T13:50:02;4.30;;;2.33;;
7661;SDS011;30314;48.184;11.510;2023-02-01T13:53:01;4.97;;;2.70;;
7661;SDS011;30314;48.184;11.510;2023-02-01T13:55:34;4.57;;;3.40;;
7661;SDS011;30314;48.184;11.510;2023-02-01T13:58:06;4.40;;;1.90;;
7661;SDS011;30314;48.184;11.510;2023-02-01T14:00:47;4.10;;;2.40;;
7661;SDS011;30314;48.184;11.510;2023-02-01T14:03:18;6.47;;;3.07;;
7661;SDS011;30314;48.184;11.510;2023-02-01T14:08:24;4.03;;;2.70;;
7661;SDS011;30314;48.184;11.510;2023-02-01T14:11:03;3.50;;;2.37;;
7661;SDS011;30314;48.184;11.510;2023-02-01T14:13:35;4.10;;;2.40;;
7661;SDS011;30314;48.184;11.510;2023-02-01T14:21:12;6.83;;;3.30;;
7661;SDS011;30314;48.184;11.510;2023-02-01T14:26:19;2.83;;;1.90;;
7661;SDS011;30314;48.184;11.510;2023-02-01T14:34:35;5.47;;;2.43;;
7661;SDS011;30314;48.184;11.510;2023-02-01T14:37:05;4.77;;;2.37;;
7661;SDS011;30314;48.184;11.510;2023-02-01T14:42:20;5.97;;;2.27;;
7661;SDS011;30314;48.184;11.510;2023-02-01T14:44:51;7.33;;;2.33;;
7661;SDS011;30314;48.184;11.510;2023-02-01T14:52:47;7.60;;;2.07;;
7661;SDS011;30314;48.184;11.510;2023-02-01T14:55:24;6.20;;;2.53;;
7661;SDS011;30314;48.184;11.510;2023-02-01T14:57:58;7.27;;;2.57;;
7661;SDS011;30314;48.184;11.510;2023-02-01T15:00:28;3.93;;;1.90;;
7661;SDS011;30314;48.184;11.510;2023-02-01T15:03:15;5.10;;;2.33;;
7661;SDS011;30314;48.184;11.510;2023-02-01T15:05:56;5.87;;;1.70;;
7661;SDS011;30314;48.184;11.510;2023-02-01T15:08:28;6.93;;;2.63;;
7661;SDS011;30314;48.184;11.510;2023-02-01T15:10:58;6.70;;;2.50;;
7661;SDS011;30314;48.184;11.510;2023-02-01T15:13:28;4.10;;;2.40;;
7661;SDS011;30314;48.184;11.510;2023-02-01T15:16:11;4.53;;;2.07;;
7661;SDS011;30314;48.184;11.510;2023-02-01T15:18:39;7.27;;;2.97;;
7661;SDS011;30314;48.184;11.510;2023-02-01T15:21:13;5.00;;;2.40;;
7661;SDS011;30314;48.184;11.510;2023-02-01T15:24:09;5.00;;;1.87;;
7661;SDS011;30314;48.184;11.510;2023-02-01T15:26:37;7.97;;;2.20;;
7661;SDS011;30314;48.184;11.510;2023-02-01T15:29:03;4.63;;;2.00;;
7661;SDS011;30314;48.184;11.510;2023-02-01T15:31:31;7.30;;;2.30;;
7661;SDS011;30314;48.184;11.510;2023-02-01T15:33:59;5.37;;;2.27;;
7661;SDS011;30314;48.184;11.510;2023-02-01T15:36:26;5.70;;;2.50;;
7661;SDS011;30314;48.184;11.510;2023-02-01T15:42:09;4.70;;;2.47;;
7661;SDS011;30314;48.184;11.510;2023-02-01T15:44:44;5.97;;;2.50;;
7661;SDS011;30314;48.184;11.510;2023-02-01T15:47:16;6.73;;;2.33;;
7661;SDS011;30314;48.184;11.510;2023-02-01T15:49:46;10.20;;;1.83;;
7661;SDS011;30314;48.184;11.510;2023-02-01T15:52:35;5.67;;;2.30;;
7661;SDS011;30314;48.184;11.510;2023-02-01T15:55:05;5.40;;;2.27;;
7661;SDS011;30314;48.184;11.510;2023-02-01T15:57:35;9.43;;;2.23;;
7661;SDS011;30314;48.184;11.510;2023-02-01T16:00:20;2.80;;;1.20;;
7661;SDS011;30314;48.184;11.510;2023-02-01T16:02:54;6.10;;;2.27;;
7661;SDS011;30314;48.184;11.510;2023-02-01T16:07:58;12.93;;;2.53;;
7661;SDS011;30314;48.184;11.510;2023-02-01T16:10:30;7.80;;;2.77;;
7661;SDS011;30314;48.184;11.510;2023-02-01T16:12:57;6.77;;;2.33;;
7661;SDS011;30314;48.184;11.510;2023-02-01T16:15:26;5.40;;;2.47;;
7661;SDS011;30314;48.184;11.510;2023-02-01T16:17:55;4.20;;;1.37;;
7661;SDS011;30314;48.184;11.510;2023-02-01T16:20:22;5.93;;;1.43;;
7661;SDS011;30314;48.184;11.510;2023-02-01T16:22:48;11.07;;;2.20;;
7661;SDS011;30314;48.184;11.510;2023-02-01T16:25:15;11.63;;;2.23;;
7661;SDS011;30314;48.184;11.510;2023-02-01T16:27:42;16.67;;;2.23;;
7661;SDS011;30314;48.184;11.510;2023-02-01T16:30:09;6.53;;;2.20;;
7661;SDS011;30314;48.184;11.510;2023-02-01T16:32:36;5.90;;;1.67;;
7661;SDS011;30314;48.184;11.510;2023-02-01T16:35:13;8.53;;;1.53;;
7661;SDS011;30314;48.184;11.510;2023-02-01T16:37:48;5.33;;;1.73;;
7661;SDS011;30314;48.184;11.510;2023-02-01T16:40:15;7.53;;;1.97;;
7661;SDS011;30314;48.184;11.510;2023-02-01T16:42:42;5.67;;;1.53;;
7661;SDS011;30314;48.184;11.510;2023-02-01T16:45:09;3.90;;;1.63;;
7661;SDS011;30314;48.184;11.510;2023-02-01T16:47:36;7.43;;;1.90;;
7661;SDS011;30314;48.184;11.510;2023-02-01T16:50:04;8.13;;;2.50;;
7661;SDS011;30314;48.184;11.510;2023-02-01T16:52:49;9.33;;;1.33;;
7661;SDS011;30314;48.184;11.510;2023-02-01T16:55:17;3.70;;;1.70;;
7661;SDS011;30314;48.184;11.510;2023-02-01T16:57:48;4.73;;;1.63;;
7661;SDS011;30314;48.184;11.510;2023-02-01T17:00:14;10.87;;;1.63;;
7661;SDS011;30314;48.184;11.510;2023-02-01T17:02:52;6.10;;;2.13;;
7661;SDS011;30314;48.184;11.510;2023-02-01T17:05:19;10.07;;;2.20;;
7661;SDS011;30314;48.184;11.510;2023-02-01T17:07:46;7.07;;;1.80;;